Time;durP1;ratioP1;P1;durP2;ratioP2;P2;SDS_P1;SDS_P2;PMS_P1;PMS_P2;Temp;Humidity;BMP_temperature;BMP_pressure;BME280_temperature;BME280_humidity;BME280_pressure;Samples;Min_cycle;Max_cycle;Signal;HPM_P1;HPM_P2
2022/11/04 00:01:58;;;;;;;0.77;0.55;;;21.10;49.40;;;;;;5036386;28;20034;-57
2022/11/04 00:04:27;;;;;;;1.20;0.70;;;21.10;49.40;;;;;;5055106;28;20037;-53
2022/11/04 00:06:53;;;;;;;0.73;0.50;;;21.10;49.50;;;;;;5051841;28;20029;-54
2022/11/04 00:09:21;;;;;;;0.65;0.60;;;21.10;49.50;;;;;;5039319;28;20083;-53
2022/11/04 00:14:33;;;;;;;0.82;0.60;;;21.10;49.50;;;;;;5043295;28;20461;-51
2022/11/04 00:30:55;;;;;;;0.90;0.70;;;21.10;49.50;;;;;;5054378;28;20052;-53
2022/11/04 00:33:24;;;;;;;1.25;0.65;;;21.10;49.50;;;;;;5043246;28;20033;-54
2022/11/04 00:35:52;;;;;;;1.45;0.85;;;21.00;49.40;;;;;;5034680;28;20042;-56
2022/11/04 00:38:17;;;;;;;0.80;0.60;;;21.10;49.50;;;;;;5046791;28;20036;-53
2022/11/04 00:40:44;;;;;;;0.98;0.70;;;21.10;49.50;;;;;;5053690;28;20384;-56
2022/11/04 00:43:10;;;;;;;2.78;0.90;;;21.00;49.50;;;;;;5054308;28;20431;-54
2022/11/04 00:45:36;;;;;;;1.55;0.73;;;21.10;49.60;;;;;;5054512;28;20033;-55
2022/11/04 00:48:02;;;;;;;0.90;0.60;;;21.00;49.50;;;;;;5050108;28;20512;-56
2022/11/04 00:50:28;;;;;;;2.58;0.80;;;21.00;49.50;;;;;;5052600;28;20447;-55
2022/11/04 00:53:01;;;;;;;1.15;0.70;;;21.00;49.50;;;;;;5058189;28;20039;-53
2022/11/04 00:55:28;;;;;;;1.13;0.68;;;21.00;49.50;;;;;;5057711;28;20029;-52
2022/11/04 00:57:55;;;;;;;1.33;0.70;;;21.00;49.40;;;;;;5055841;28;20029;-56
2022/11/04 01:00:20;;;;;;;0.73;0.50;;;21.00;49.40;;;;;;5057625;28;20448;-53
2022/11/04 01:02:46;;;;;;;1.15;0.80;;;21.00;49.40;;;;;;5056154;28;20052;-54
2022/11/04 01:05:12;;;;;;;0.98;0.60;;;21.00;49.30;;;;;;5054589;28;20068;-52
2022/11/04 01:07:38;;;;;;;1.25;0.57;;;21.00;49.30;;;;;;5056080;28;20121;-56
2022/11/04 01:10:05;;;;;;;2.15;0.60;;;21.00;49.20;;;;;;5057205;28;20519;-55
2022/11/04 01:12:31;;;;;;;1.20;0.50;;;21.00;49.10;;;;;;5057783;28;20025;-58
2022/11/04 01:14:58;;;;;;;0.93;0.50;;;21.00;49.00;;;;;;5056456;28;20028;-56
2022/11/04 01:17:23;;;;;;;1.55;0.50;;;21.00;49.00;;;;;;5056220;28;20053;-53
2022/11/04 01:19:49;;;;;;;1.38;0.43;;;21.00;48.90;;;;;;5037989;28;20091;-52
2022/11/04 01:22:15;;;;;;;0.50;0.50;;;21.00;48.80;;;;;;5037588;28;20033;-55
2022/11/04 01:24:41;;;;;;;0.60;0.35;;;21.00;48.80;;;;;;5037902;28;20121;-52
2022/11/04 01:27:07;;;;;;;0.98;0.50;;;21.00;48.80;;;;;;5041843;28;20028;-53
2022/11/04 01:29:32;;;;;;;0.90;0.40;;;21.00;48.70;;;;;;5057556;28;20348;-55
2022/11/04 01:31:58;;;;;;;0.55;0.50;;;21.00;48.60;;;;;;5057301;28;20090;-55
2022/11/04 01:34:24;;;;;;;0.68;0.40;;;21.00;48.50;;;;;;5037897;28;20068;-54
2022/11/04 01:36:50;;;;;;;0.57;0.40;;;20.90;48.50;;;;;;5054570;28;20052;-55
2022/11/04 01:39:16;;;;;;;0.80;0.40;;;20.90;48.40;;;;;;5047916;28;20029;-57
2022/11/04 01:41:41;;;;;;;0.77;0.40;;;20.90;48.30;;;;;;5057311;28;20111;-53
2022/11/04 01:44:41;;;;;;;0.45;0.40;;;21.00;48.30;;;;;;5057105;28;20091;-57
2022/11/04 01:47:20;;;;;;;0.45;0.30;;;21.00;48.20;;;;;;5044450;28;20040;-55
2022/11/04 01:50:19;;;;;;;1.33;0.45;;;20.90;48.20;;;;;;5055250;28;20329;-54
2022/11/04 01:53:12;;;;;;;0.47;0.40;;;20.90;48.10;;;;;;5043994;28;20040;-50
2022/11/04 01:55:56;;;;;;;0.68;0.40;;;20.90;48.10;;;;;;5056476;28;20062;-54
2022/11/04 01:58:27;;;;;;;1.08;0.47;;;20.90;48.00;;;;;;5053637;28;20043;-51
2022/11/04 02:00:52;;;;;;;0.68;0.40;;;20.90;48.00;;;;;;5049476;28;20327;-54
2022/11/04 02:03:29;;;;;;;0.90;0.50;;;20.90;48.00;;;;;;5036690;28;20032;-50
2022/11/04 02:05:56;;;;;;;0.88;0.40;;;20.90;48.00;;;;;;5045873;28;20045;-53
2022/11/04 02:08:22;;;;;;;0.55;0.40;;;20.80;47.90;;;;;;5044988;28;20040;-54
2022/11/04 02:10:54;;;;;;;1.27;0.60;;;20.90;48.00;;;;;;5055835;28;20116;-55
2022/11/04 02:13:20;;;;;;;0.80;0.60;;;20.90;47.90;;;;;;5056100;28;20531;-52
2022/11/04 02:16:16;;;;;;;0.70;0.50;;;20.80;47.90;;;;;;5056327;28;20060;-51
2022/11/04 02:19:03;;;;;;;0.98;0.73;;;20.80;47.90;;;;;;5052656;28;20053;-53
2022/11/04 02:21:48;;;;;;;1.33;0.60;;;20.80;47.90;;;;;;5055002;28;20049;-55
2022/11/04 02:24:25;;;;;;;0.77;0.70;;;20.80;48.00;;;;;;5055536;28;20055;-54
2022/11/04 02:26:56;;;;;;;1.95;0.73;;;20.80;48.00;;;;;;5056200;28;20040;-52
2022/11/04 02:29:40;;;;;;;1.42;0.60;;;20.80;48.00;;;;;;5042462;28;20094;-53
2022/11/04 02:32:13;;;;;;;0.80;0.70;;;20.80;48.10;;;;;;5036304;28;20461;-50
2022/11/04 02:35:06;;;;;;;1.35;0.90;;;20.80;48.10;;;;;;5042269;28;20032;-54
2022/11/04 02:37:57;;;;;;;1.80;1.10;;;20.90;48.10;;;;;;5056042;28;20033;-55
2022/11/04 02:41:07;;;;;;;1.27;0.85;;;20.80;48.10;;;;;;5036476;28;20037;-52
2022/11/04 02:43:46;;;;;;;2.05;1.08;;;20.80;48.10;;;;;;5016316;28;20033;-56
2022/11/04 02:46:23;;;;;;;2.95;1.08;;;20.80;48.10;;;;;;5054168;28;20116;-52
2022/11/04 02:48:58;;;;;;;1.27;0.93;;;20.80;48.10;;;;;;5054859;28;20345;-54
2022/11/04 02:52:25;;;;;;;2.25;1.00;;;20.80;48.20;;;;;;5053623;28;20028;-51
2022/11/04 02:55:04;;;;;;;1.10;1.00;;;20.80;48.20;;;;;;4984320;28;20108;-56
2022/11/04 02:57:34;;;;;;;1.80;1.15;;;20.80;48.30;;;;;;4994692;28;20038;-54
2022/11/04 03:00:06;;;;;;;1.63;1.17;;;20.80;48.30;;;;;;5038895;28;20044;-55
2022/11/04 03:02:41;;;;;;;1.98;1.23;;;20.80;48.30;;;;;;5053786;28;20047;-53
2022/11/04 03:05:12;;;;;;;1.80;1.17;;;20.80;48.30;;;;;;5041202;28;20110;-52
2022/11/04 03:07:41;;;;;;;2.53;1.10;;;20.70;48.30;;;;;;5051038;28;20033;-53
2022/11/04 03:10:13;;;;;;;2.05;1.20;;;20.80;48.40;;;;;;5050653;28;20025;-54
2022/11/04 03:12:46;;;;;;;1.30;1.20;;;20.70;48.40;;;;;;5054550;28;20036;-51
2022/11/04 03:15:19;;;;;;;1.77;1.27;;;20.70;48.40;;;;;;5055094;28;20048;-55
2022/11/04 03:18:03;;;;;;;1.17;1.08;;;20.70;48.30;;;;;;5051395;28;20069;-53
2022/11/04 03:20:30;;;;;;;1.95;1.35;;;20.70;48.30;;;;;;5035805;28;20044;-55
2022/11/04 03:22:59;;;;;;;1.45;1.10;;;20.70;48.30;;;;;;5043812;28;20033;-51
2022/11/04 03:25:36;;;;;;;2.05;1.38;;;20.70;48.30;;;;;;5035494;28;20064;-52
2022/11/04 03:28:15;;;;;;;1.73;1.30;;;20.70;48.30;;;;;;5035056;28;20088;-53
2022/11/04 03:30:48;;;;;;;1.60;1.10;;;20.70;48.30;;;;;;5034924;28;20041;-52
2022/11/04 03:33:37;;;;;;;1.25;1.10;;;20.70;48.30;;;;;;5039250;28;20041;-53
2022/11/04 03:36:03;;;;;;;2.03;1.33;;;20.70;48.30;;;;;;5052472;28;20040;-53
2022/11/04 03:38:29;;;;;;;1.63;1.00;;;20.70;48.30;;;;;;5054940;28;20032;-54
2022/11/04 03:40:58;;;;;;;2.20;1.40;;;20.70;48.30;;;;;;5054293;28;20440;-51
2022/11/04 03:43:27;;;;;;;1.90;1.20;;;20.70;48.40;;;;;;5048917;28;20029;-54
2022/11/04 03:45:53;;;;;;;1.98;1.42;;;20.70;48.40;;;;;;5048067;28;20043;-54
2022/11/04 03:48:20;;;;;;;3.20;1.30;;;20.70;48.40;;;;;;5053668;28;20520;-56
2022/11/04 03:50:47;;;;;;;2.67;1.27;;;20.70;48.40;;;;;;5054189;28;20384;-53
2022/11/04 03:53:17;;;;;;;2.67;1.30;;;20.70;48.40;;;;;;5036598;28;20033;-56
2022/11/04 03:56:07;;;;;;;1.55;1.00;;;20.70;48.30;;;;;;5050471;28;20045;-54
2022/11/04 03:58:57;;;;;;;2.28;1.60;;;20.70;48.30;;;;;;5052723;28;20448;-57
2022/11/04 04:01:34;;;;;;;1.65;1.20;;;20.70;48.30;;;;;;5054711;28;20033;-54
2022/11/04 04:04:26;;;;;;;2.65;1.60;;;20.70;48.30;;;;;;5043754;28;20033;-53
2022/11/04 04:06:58;;;;;;;3.47;1.58;;;20.60;48.30;;;;;;5016373;28;20175;-51
2022/11/04 04:09:34;;;;;;;2.33;1.40;;;20.60;48.20;;;;;;5035956;28;20038;-50
2022/11/04 04:12:07;;;;;;;2.15;1.50;;;20.70;48.30;;;;;;5054656;28;20043;-52
2022/11/04 04:14:47;;;;;;;1.75;1.45;;;20.60;48.20;;;;;;5053706;28;20044;-56
2022/11/04 04:17:17;;;;;;;2.80;1.40;;;20.60;48.20;;;;;;5054398;28;20040;-54
2022/11/04 04:19:53;;;;;;;2.92;1.45;;;20.60;48.20;;;;;;5054634;28;20116;-50
2022/11/04 04:22:24;;;;;;;2.53;1.50;;;20.60;48.20;;;;;;5053292;28;20444;-55
2022/11/04 04:27:38;;;;;;;2.15;1.20;;;20.60;48.10;;;;;;5058306;28;20029;-53
2022/11/04 04:30:08;;;;;;;1.98;1.30;;;20.60;48.10;;;;;;5057658;28;20060;-54
2022/11/04 04:32:39;;;;;;;3.08;1.48;;;20.60;48.70;;;;;;5057726;28;20025;-54
2022/11/04 04:37:54;;;;;;;3.70;1.40;;;20.60;48.00;;;;;;5058669;28;20035;-53
2022/11/04 04:46:00;;;;;;;2.30;1.20;;;20.60;48.00;;;;;;5058291;28;20041;-53
2022/11/04 04:48:26;;;;;;;2.00;1.20;;;20.60;48.00;;;;;;5056198;28;20551;-56
2022/11/04 04:50:55;;;;;;;3.33;1.50;;;20.60;48.00;;;;;;5059118;28;20037;-52
2022/11/04 04:53:22;;;;;;;1.70;1.20;;;20.60;48.00;;;;;;5055633;28;20040;-54
2022/11/04 04:55:47;;;;;;;1.70;1.13;;;20.60;48.00;;;;;;5058133;28;20029;-56
2022/11/04 04:58:13;;;;;;;1.98;1.13;;;20.60;48.00;;;;;;5055265;28;20452;-52
2022/11/04 05:00:39;;;;;;;3.15;1.38;;;20.60;47.90;;;;;;5054825;28;20025;-51
2022/11/04 05:03:05;;;;;;;2.53;1.30;;;20.60;47.90;;;;;;5048102;28;20048;-54
2022/11/04 05:05:31;;;;;;;2.50;1.20;;;20.50;47.90;;;;;;5057597;28;20445;-54
2022/11/04 05:08:06;;;;;;;2.00;1.00;;;20.50;47.90;;;;;;5052713;28;20025;-50
2022/11/04 05:10:33;;;;;;;1.27;0.90;;;20.50;47.90;;;;;;5054405;28;20047;-53
2022/11/04 05:15:44;;;;;;;1.45;1.10;;;20.60;47.90;;;;;;5057478;28;20040;-54
2022/11/04 05:18:10;;;;;;;1.67;1.25;;;20.60;47.90;;;;;;5049930;28;20350;-55
2022/11/04 05:20:37;;;;;;;1.65;0.90;;;20.50;47.90;;;;;;5053100;28;20360;-53
2022/11/04 05:23:03;;;;;;;2.25;1.27;;;20.50;47.90;;;;;;5052280;28;20025;-52
2022/11/04 05:25:29;;;;;;;2.03;1.10;;;20.50;47.90;;;;;;5037659;28;20449;-54
2022/11/04 05:27:59;;;;;;;2.70;1.33;;;20.50;47.80;;;;;;5037485;28;20356;-56
2022/11/04 05:30:25;;;;;;;1.92;1.40;;;20.50;47.80;;;;;;5037291;28;20029;-55
2022/11/04 05:32:51;;;;;;;1.27;0.90;;;20.50;47.80;;;;;;5044205;28;20021;-52
2022/11/04 05:35:16;;;;;;;2.95;1.23;;;20.50;47.70;;;;;;5041625;28;20040;-53
2022/11/04 05:37:42;;;;;;;1.33;1.10;;;20.50;47.70;;;;;;5057279;28;20120;-51
2022/11/04 05:40:09;;;;;;;2.20;1.08;;;20.50;47.70;;;;;;5057048;28;20033;-52
2022/11/04 05:42:35;;;;;;;3.25;1.10;;;20.50;47.60;;;;;;5056456;28;20044;-57
2022/11/04 05:45:02;;;;;;;2.10;1.00;;;20.50;47.60;;;;;;5055968;28;20051;-54
2022/11/04 05:47:28;;;;;;;2.25;1.08;;;20.50;47.50;;;;;;5056271;28;20039;-52
2022/11/04 05:49:53;;;;;;;1.60;1.10;;;20.60;47.50;;;;;;5056698;28;20133;-53
2022/11/04 05:52:19;;;;;;;2.17;1.08;;;20.50;47.50;;;;;;5053320;28;20497;-54
2022/11/04 05:54:45;;;;;;;2.03;1.08;;;20.60;47.40;;;;;;5051763;28;20068;-53
2022/11/04 05:57:11;;;;;;;2.38;1.38;;;20.50;47.30;;;;;;5057830;28;20031;-53
2022/11/04 05:59:36;;;;;;;3.03;1.30;;;20.50;47.30;;;;;;5056220;28;20436;-50
2022/11/04 06:02:02;;;;;;;2.72;1.08;;;20.60;47.30;;;;;;5056767;28;20040;-52
2022/11/04 06:04:28;;;;;;;2.28;1.02;;;20.50;47.20;;;;;;5040925;28;20334;-56
2022/11/04 06:06:54;;;;;;;2.00;1.08;;;20.60;47.20;;;;;;5050895;28;20036;-55
2022/11/04 06:09:20;;;;;;;1.58;0.90;;;20.60;47.20;;;;;;5055352;28;20021;-53
2022/11/04 06:11:45;;;;;;;1.35;0.90;;;20.60;47.20;;;;;;5056677;28;20413;-51
2022/11/04 06:14:11;;;;;;;1.73;1.02;;;20.60;47.10;;;;;;5055099;28;20043;-51
2022/11/04 06:16:37;;;;;;;2.85;1.08;;;20.60;47.10;;;;;;5055000;28;20047;-53
2022/11/04 06:19:03;;;;;;;2.08;0.98;;;20.60;47.10;;;;;;5041916;28;20041;-51
2022/11/04 06:21:31;;;;;;;1.50;0.80;;;20.60;47.10;;;;;;5053546;28;20059;-56
2022/11/04 06:23:58;;;;;;;1.95;1.10;;;20.60;47.00;;;;;;5042261;28;20084;-55
2022/11/04 06:26:25;;;;;;;1.27;0.93;;;20.60;47.00;;;;;;5041395;28;20025;-52
2022/11/04 06:28:52;;;;;;;1.70;1.05;;;20.60;47.00;;;;;;5036293;28;20060;-54
2022/11/04 06:31:17;;;;;;;1.10;0.95;;;20.60;47.00;;;;;;5036346;28;20032;-56
2022/11/04 06:33:43;;;;;;;2.63;1.23;;;20.60;47.00;;;;;;5036553;28;20033;-55
2022/11/04 06:36:12;;;;;;;1.90;1.20;;;20.60;47.00;;;;;;5036782;28;20349;-52
2022/11/04 06:38:38;;;;;;;1.85;0.93;;;20.60;47.00;;;;;;5055720;28;20395;-52
2022/11/04 06:41:06;;;;;;;1.48;0.88;;;20.60;47.00;;;;;;5055088;28;20158;-57
2022/11/04 06:43:32;;;;;;;1.90;1.10;;;20.60;47.00;;;;;;5054970;28;20028;-53
2022/11/04 06:46:00;;;;;;;2.53;1.10;;;20.60;46.90;;;;;;5054824;28;20103;-56
2022/11/04 06:48:29;;;;;;;2.30;1.05;;;20.60;46.90;;;;;;5052168;28;20033;-55
2022/11/04 06:50:56;;;;;;;2.17;1.17;;;20.60;46.90;;;;;;5054382;28;20444;-52
2022/11/04 06:53:22;;;;;;;2.03;1.10;;;20.60;46.80;;;;;;5046819;28;20033;-55
2022/11/04 06:55:48;;;;;;;1.83;0.90;;;20.60;46.90;;;;;;5048038;28;20387;-53
2022/11/04 06:58:14;;;;;;;1.90;1.02;;;20.60;46.90;;;;;;5039246;28;20353;-53
2022/11/04 07:00:39;;;;;;;1.80;0.90;;;20.60;46.90;;;;;;5050213;28;20031;-55
2022/11/04 07:03:07;;;;;;;2.58;1.00;;;20.60;46.90;;;;;;5035887;28;20460;-56
2022/11/04 07:05:33;;;;;;;2.55;1.20;;;20.60;46.80;;;;;;5040467;28;20074;-54
2022/11/04 07:07:58;;;;;;;1.67;0.88;;;20.60;46.90;;;;;;5046602;28;20036;-54
2022/11/04 07:10:32;;;;;;;2.15;1.00;;;20.60;46.90;;;;;;5068893;28;20389;-57
2022/11/04 07:12:58;;;;;;;1.77;1.00;;;20.60;46.90;;;;;;5052354;28;20120;-56
2022/11/04 07:15:24;;;;;;;1.63;1.45;;;20.60;46.80;;;;;;5051507;28;20021;-54
2022/11/04 07:17:50;;;;;;;1.67;0.95;;;20.60;46.80;;;;;;5038965;28;20033;-53
2022/11/04 07:20:16;;;;;;;2.13;1.00;;;20.60;46.80;;;;;;5047662;28;20374;-56
2022/11/04 07:22:41;;;;;;;1.92;0.90;;;20.60;46.80;;;;;;5044772;28;20111;-56
2022/11/04 07:25:08;;;;;;;2.55;1.00;;;20.60;46.80;;;;;;5043112;28;20111;-53
2022/11/04 07:27:34;;;;;;;1.42;0.70;;;20.60;46.70;;;;;;5041899;28;20033;-55
2022/11/04 07:29:59;;;;;;;2.40;0.90;;;20.60;46.70;;;;;;5040991;28;20044;-55
2022/11/04 07:32:25;;;;;;;1.95;0.90;;;20.60;46.60;;;;;;5040885;28;20067;-52
2022/11/04 07:34:51;;;;;;;2.60;1.10;;;20.60;46.60;;;;;;5046369;28;20416;-56
2022/11/04 07:37:17;;;;;;;2.25;0.85;;;20.60;46.60;;;;;;5044756;28;20053;-55
2022/11/04 07:39:42;;;;;;;3.95;1.10;;;20.70;46.70;;;;;;5044623;28;20076;-57
2022/11/04 07:42:08;;;;;;;1.85;0.90;;;20.60;46.80;;;;;;5042655;28;20036;-59
2022/11/04 07:44:34;;;;;;;2.13;1.10;;;20.60;46.90;;;;;;5051488;28;20067;-62
2022/11/04 07:47:00;;;;;;;2.05;1.00;;;20.60;47.10;;;;;;5048994;28;20033;-59
2022/11/04 07:49:26;;;;;;;2.03;0.70;;;20.70;47.00;;;;;;5031464;28;20036;-56
2022/11/04 07:51:52;;;;;;;2.92;0.98;;;20.70;46.90;;;;;;5031997;28;20133;-61
2022/11/04 07:54:17;;;;;;;3.42;1.00;;;20.80;46.80;;;;;;5031488;28;20345;-59
2022/11/04 07:56:43;;;;;;;2.28;0.98;;;20.90;46.70;;;;;;5031342;28;20030;-59
2022/11/04 07:59:10;;;;;;;1.95;0.90;;;20.90;46.50;;;;;;5037354;28;20071;-59
2022/11/04 08:01:36;;;;;;;2.85;0.98;;;21.00;46.30;;;;;;5047645;28;20060;-56
2022/11/04 08:04:01;;;;;;;2.50;0.98;;;21.10;46.20;;;;;;5042762;28;20430;-56
2022/11/04 08:06:29;;;;;;;2.92;1.10;;;21.20;46.00;;;;;;5031056;28;20073;-58
2022/11/04 08:08:57;;;;;;;1.83;0.70;;;21.30;45.80;;;;;;5038568;28;20061;-60
2022/11/04 08:11:27;;;;;;;2.47;0.75;;;21.40;45.70;;;;;;5065241;28;20200;-59
2022/11/04 08:13:54;;;;;;;2.28;0.80;;;21.40;45.50;;;;;;5060477;28;20029;-57
2022/11/04 08:16:24;;;;;;;2.15;0.88;;;21.50;45.50;;;;;;5069442;28;20046;-60
2022/11/04 08:18:52;;;;;;;1.85;0.65;;;21.50;45.40;;;;;;5069690;28;20364;-57
2022/11/04 08:21:19;;;;;;;2.95;0.95;;;21.60;45.40;;;;;;5060811;28;20025;-56
2022/11/04 08:23:46;;;;;;;2.70;0.82;;;21.60;45.20;;;;;;5055156;28;20522;-57
2022/11/04 08:26:16;;;;;;;2.05;0.80;;;21.70;45.80;;;;;;5047114;28;20029;-57
2022/11/04 08:28:42;;;;;;;3.30;1.02;;;21.70;45.00;;;;;;5040482;28;20033;-57
2022/11/04 08:31:17;;;;;;;2.80;0.85;;;21.80;44.90;;;;;;5043377;28;20029;-60
2022/11/04 08:33:43;;;;;;;2.47;0.63;;;21.80;44.80;;;;;;5053918;28;20098;-59
2022/11/04 08:36:16;;;;;;;1.75;0.70;;;21.80;44.70;;;;;;5030435;28;20029;-59
2022/11/04 08:38:42;;;;;;;0.93;0.73;;;21.90;44.60;;;;;;5041985;28;20029;-56
2022/11/04 08:41:10;;;;;;;1.55;0.63;;;21.90;44.50;;;;;;5043662;28;20051;-59
2022/11/04 08:43:36;;;;;;;2.28;0.77;;;22.00;44.40;;;;;;5040549;28;20436;-57
2022/11/04 08:46:05;;;;;;;1.52;0.70;;;22.00;44.30;;;;;;5042632;28;20163;-60
2022/11/04 08:48:34;;;;;;;2.97;1.02;;;22.00;44.30;;;;;;5047073;28;20086;-61
2022/11/04 08:51:01;;;;;;;2.33;1.00;;;22.00;44.20;;;;;;5039098;28;20100;-57
2022/11/04 08:53:27;;;;;;;1.15;0.70;;;22.10;44.20;;;;;;5049614;28;20025;-57
2022/11/04 08:55:53;;;;;;;1.75;0.80;;;22.10;44.10;;;;;;5055537;28;20063;-56
2022/11/04 08:58:20;;;;;;;2.67;0.77;;;22.10;44.00;;;;;;5056790;28;20113;-57
2022/11/04 09:00:46;;;;;;;1.00;0.45;;;22.10;43.90;;;;;;5039480;28;20455;-56
2022/11/04 09:03:12;;;;;;;3.15;1.00;;;22.20;43.90;;;;;;5056402;28;20052;-58
2022/11/04 09:05:43;;;;;;;2.03;0.77;;;22.20;44.00;;;;;;5053716;28;20029;-59
2022/11/04 09:08:14;;;;;;;2.10;0.90;;;22.20;43.80;;;;;;5049467;28;20021;-57
2022/11/04 09:10:45;;;;;;;1.83;0.65;;;22.20;43.80;;;;;;5041195;28;20025;-60
2022/11/04 09:13:12;;;;;;;1.83;0.90;;;22.20;43.70;;;;;;5027913;28;20046;-59
2022/11/04 09:15:38;;;;;;;4.50;0.77;;;22.30;43.70;;;;;;5036942;28;20026;-56
2022/11/04 09:18:04;;;;;;;1.70;0.73;;;22.30;43.70;;;;;;5046542;28;20171;-56
2022/11/04 09:20:31;;;;;;;1.10;0.60;;;22.30;43.70;;;;;;5050233;28;20076;-57
2022/11/04 09:22:57;;;;;;;3.00;0.90;;;22.30;43.60;;;;;;5049617;28;20052;-57
2022/11/04 09:25:23;;;;;;;2.67;0.65;;;22.30;43.60;;;;;;5048050;28;20440;-63
2022/11/04 09:27:48;;;;;;;1.33;0.70;;;22.30;43.50;;;;;;5044832;28;20026;-64
2022/11/04 09:30:15;;;;;;;1.65;0.75;;;22.30;43.60;;;;;;5036056;28;20037;-60
2022/11/04 09:32:41;;;;;;;3.33;0.77;;;22.30;43.70;;;;;;5047066;28;20032;-61
2022/11/04 09:35:07;;;;;;;2.05;0.60;;;22.40;43.80;;;;;;5038914;28;20460;-61
2022/11/04 09:37:33;;;;;;;1.88;0.70;;;22.40;43.90;;;;;;5055395;28;20040;-62
2022/11/04 09:39:59;;;;;;;1.42;0.90;;;22.40;43.90;;;;;;5056066;28;20322;-61
2022/11/04 09:42:49;;;;;;;2.28;0.85;;;22.50;44.00;;;;;;5029411;28;20330;-64
2022/11/04 09:45:17;;;;;;;1.08;0.70;;;22.50;43.90;;;;;;5044358;28;20096;-64
2022/11/04 09:47:48;;;;;;;2.00;0.93;;;22.60;43.90;;;;;;5050390;28;20114;-59
2022/11/04 09:50:28;;;;;;;2.45;1.00;;;22.60;43.90;;;;;;5050507;28;20037;-66
2022/11/04 09:53:09;;;;;;;2.67;1.15;;;22.70;43.80;;;;;;5053159;28;20451;-59
2022/11/04 09:55:43;;;;;;;2.05;0.90;;;22.80;43.80;;;;;;5036509;28;20044;-61
2022/11/04 09:58:11;;;;;;;4.70;1.20;;;22.80;43.80;;;;;;5056351;28;20413;-60
2022/11/04 10:00:39;;;;;;;3.22;1.30;;;22.80;43.70;;;;;;5053933;28;20029;-62
2022/11/04 10:03:07;;;;;;;2.08;0.93;;;22.90;43.70;;;;;;5040442;28;20099;-61
2022/11/04 10:05:54;;;;;;;2.75;0.90;;;22.90;43.60;;;;;;5044918;28;20048;-58
2022/11/04 10:08:30;;;;;;;3.08;1.10;;;23.00;43.60;;;;;;5026444;28;20068;-57
2022/11/04 10:11:17;;;;;;;2.42;1.02;;;23.00;43.50;;;;;;5050883;28;20862;-62
2022/11/04 10:13:49;;;;;;;2.55;1.10;;;23.00;43.50;;;;;;5054995;28;20406;-66
2022/11/04 10:16:38;;;;;;;2.78;1.23;;;23.10;43.50;;;;;;5052096;28;20048;-58
2022/11/04 10:19:36;;;;;;;2.60;1.23;;;23.10;43.40;;;;;;5028651;28;20045;-56
2022/11/04 10:22:09;;;;;;;3.50;1.08;;;23.20;43.30;;;;;;5035336;28;20399;-59
2022/11/04 10:24:38;;;;;;;2.50;1.30;;;23.20;43.20;;;;;;5047569;28;20033;-59
2022/11/04 10:27:11;;;;;;;4.03;1.30;;;23.20;43.10;;;;;;5037644;28;20103;-58
2022/11/04 10:29:41;;;;;;;2.90;1.38;;;23.20;43.00;;;;;;5044048;28;20111;-61
2022/11/04 10:32:31;;;;;;;2.47;1.08;;;23.30;43.00;;;;;;5021770;28;20025;-56
2022/11/04 10:35:01;;;;;;;2.10;1.00;;;23.30;42.90;;;;;;5043530;28;20029;-53
2022/11/04 10:37:27;;;;;;;2.88;1.20;;;23.30;42.90;;;;;;5054633;28;20552;-55
2022/11/04 10:40:14;;;;;;;3.03;1.27;;;23.40;43.00;;;;;;5055031;28;20068;-57
2022/11/04 10:42:40;;;;;;;3.17;1.20;;;23.30;42.90;;;;;;5054736;28;20031;-59
2022/11/04 10:45:11;;;;;;;3.50;1.48;;;23.40;42.90;;;;;;5046637;28;20029;-62
2022/11/04 10:47:51;;;;;;;3.45;1.80;;;23.40;42.90;;;;;;5053754;28;20029;-56
2022/11/04 10:50:25;;;;;;;3.22;1.55;;;23.30;42.90;;;;;;5046347;28;20075;-59
2022/11/04 10:52:54;;;;;;;3.22;1.38;;;23.40;43.00;;;;;;5050145;28;20029;-59
2022/11/04 10:55:20;;;;;;;3.45;1.60;;;23.40;43.10;;;;;;5039855;28;20083;-58
2022/11/04 10:57:46;;;;;;;3.63;1.27;;;23.40;43.10;;;;;;5035327;28;20433;-61
2022/11/04 11:00:33;;;;;;;4.22;1.30;;;23.40;43.10;;;;;;5034962;28;20059;-59
2022/11/04 11:02:59;;;;;;;3.28;1.30;;;23.40;43.00;;;;;;5017690;28;20057;-60
2022/11/04 11:05:26;;;;;;;2.95;1.40;;;23.40;43.00;;;;;;5045286;28;20122;-61
2022/11/04 11:07:55;;;;;;;3.63;1.25;;;23.50;43.00;;;;;;5042486;28;20532;-60
2022/11/04 11:10:28;;;;;;;2.88;1.30;;;23.50;42.90;;;;;;5041563;28;20057;-61
2022/11/04 11:13:01;;;;;;;2.63;1.00;;;23.50;42.80;;;;;;5043326;28;20036;-60
2022/11/04 11:15:35;;;;;;;3.58;1.35;;;23.50;42.70;;;;;;5043488;28;20108;-58
2022/11/04 11:18:07;;;;;;;2.22;1.25;;;23.60;42.70;;;;;;5025221;28;20033;-62
2022/11/04 11:20:36;;;;;;;3.88;1.40;;;23.60;42.60;;;;;;5041382;28;20054;-57
2022/11/04 11:23:08;;;;;;;4.82;1.27;;;23.60;42.60;;;;;;5042852;28;20441;-63
2022/11/04 11:25:41;;;;;;;6.03;1.63;;;23.70;42.50;;;;;;5024906;28;20117;-61
2022/11/04 11:28:19;;;;;;;4.05;1.30;;;23.60;42.50;;;;;;5043772;28;20446;-61
2022/11/04 11:30:47;;;;;;;4.45;1.38;;;23.70;43.10;;;;;;5040076;28;20037;-59
2022/11/04 11:33:29;;;;;;;4.25;1.50;;;23.70;42.50;;;;;;5040315;28;20033;-61
2022/11/04 11:36:05;;;;;;;6.07;1.75;;;23.80;42.40;;;;;;5041420;28;20040;-59
2022/11/04 11:38:33;;;;;;;8.32;2.33;;;23.80;42.40;;;;;;5040188;28;20461;-62
2022/11/04 11:41:10;;;;;;;10.43;3.40;;;23.80;42.40;;;;;;5028032;28;20457;-65
2022/11/04 11:43:42;;;;;;;9.70;2.70;;;23.80;42.40;;;;;;5044098;28;20072;-60
2022/11/04 11:46:10;;;;;;;9.60;2.78;;;23.80;42.40;;;;;;5048658;28;20063;-63
2022/11/04 11:48:49;;;;;;;8.00;3.03;;;23.90;42.40;;;;;;5023660;28;20075;-64
2022/11/04 11:51:23;;;;;;;8.23;3.20;;;23.90;42.40;;;;;;5045095;28;20033;-62
2022/11/04 11:54:16;;;;;;;10.98;3.50;;;23.90;42.40;;;;;;5043037;28;20021;-61
2022/11/04 11:56:53;;;;;;;11.43;3.30;;;24.00;42.40;;;;;;5045682;28;20029;-64
2022/11/04 11:59:52;;;;;;;8.63;2.47;;;24.00;42.40;;;;;;5031250;28;20342;-62
2022/11/04 12:02:39;;;;;;;7.45;2.55;;;24.00;42.30;;;;;;5043249;28;20045;-59
2022/11/04 12:05:11;;;;;;;7.75;2.72;;;24.00;42.30;;;;;;5049830;28;20346;-59
2022/11/04 12:08:15;;;;;;;6.25;2.30;;;24.10;42.20;;;;;;5032376;28;20044;-59
2022/11/04 12:10:49;;;;;;;5.80;2.40;;;24.10;42.10;;;;;;5046852;28;20045;-58
2022/11/04 12:13:23;;;;;;;4.85;2.35;;;24.10;42.10;;;;;;5029407;28;20041;-59
2022/11/04 12:16:05;;;;;;;6.45;2.40;;;24.10;42.10;;;;;;5047610;28;20032;-58
2022/11/04 12:18:57;;;;;;;5.72;2.25;;;24.10;42.00;;;;;;5046923;28;20095;-62
2022/11/04 12:21:32;;;;;;;6.00;2.15;;;24.10;41.90;;;;;;5045324;28;20052;-61
2022/11/04 12:24:26;;;;;;;3.67;1.73;;;24.10;41.80;;;;;;5047713;28;20030;-57
2022/11/04 12:27:00;;;;;;;5.50;1.98;;;24.10;41.80;;;;;;5037579;28;20131;-55
2022/11/04 12:29:35;;;;;;;;;;;24.10;41.70;;;;;;5027538;28;20444;-57
2022/11/04 12:32:18;;;;;;;3.55;1.60;;;24.10;41.70;;;;;;5044352;28;19909;-59
2022/11/04 12:34:49;;;;;;;4.28;1.60;;;24.10;41.70;;;;;;5046930;28;20033;-56
2022/11/04 12:37:43;;;;;;;4.47;2.00;;;24.10;41.70;;;;;;5046689;28;20547;-58
2022/11/04 12:40:19;;;;;;;3.25;1.60;;;24.00;41.60;;;;;;5045163;28;20029;-58
2022/11/04 12:43:25;;;;;;;4.55;1.90;;;24.00;41.50;;;;;;5039704;28;20037;-60
2022/11/04 12:46:10;;;;;;;4.97;1.77;;;24.00;41.50;;;;;;5047924;28;20040;-57
2022/11/04 12:49:03;;;;;;;5.65;1.65;;;24.00;41.60;;;;;;5028366;28;20041;-58
2022/11/04 12:51:47;;;;;;;2.88;1.70;;;24.00;41.60;;;;;;5046233;28;20457;-59
2022/11/04 12:54:30;;;;;;;4.10;1.70;;;23.90;41.50;;;;;;5030437;28;20406;-57
2022/11/04 12:57:31;;;;;;;3.45;1.52;;;23.90;41.50;;;;;;5044895;28;20036;-61
2022/11/04 13:00:34;;;;;;;3.20;1.40;;;23.90;41.50;;;;;;5043980;28;20034;-55
2022/11/04 13:03:30;;;;;;;4.55;1.60;;;23.90;41.60;;;;;;4992778;28;20053;-57
2022/11/04 13:06:03;;;;;;;3.10;1.40;;;23.80;41.50;;;;;;5049236;28;20036;-58
2022/11/04 13:08:37;;;;;;;3.28;1.58;;;23.80;41.70;;;;;;5041415;28;20050;-59
2022/11/04 13:11:21;;;;;;;;;;;23.80;41.80;;;;;;5043002;28;20061;-58
2022/11/04 13:13:57;;;;;;;2.38;1.45;;;23.80;41.90;;;;;;5052602;28;19917;-56
2022/11/04 13:16:23;;;;;;;3.55;1.50;;;23.80;42.00;;;;;;5051521;28;20043;-55
2022/11/04 13:18:50;;;;;;;3.72;1.60;;;23.80;42.10;;;;;;5044657;28;20033;-57
2022/11/04 13:21:23;;;;;;;2.42;1.55;;;23.80;42.00;;;;;;5043018;28;20099;-57
2022/11/04 13:24:03;;;;;;;4.25;1.85;;;23.80;41.90;;;;;;5055180;28;20055;-56
2022/11/04 13:26:29;;;;;;;5.45;1.70;;;23.80;41.90;;;;;;5036572;28;20029;-52
2022/11/04 13:29:13;;;;;;;2.58;1.30;;;23.90;41.80;;;;;;5044525;28;20164;-55
2022/11/04 13:31:44;;;;;;;3.58;1.48;;;23.90;41.80;;;;;;5052678;28;20047;-53
2022/11/04 13:34:45;;;;;;;5.85;1.60;;;23.90;41.70;;;;;;5054596;28;20063;-50
2022/11/04 13:37:19;;;;;;;3.10;1.50;;;23.90;41.70;;;;;;5016254;28;20041;-54
2022/11/04 13:40:14;;;;;;;6.07;1.65;;;23.90;41.80;;;;;;5053482;28;20029;-49
2022/11/04 13:43:36;;;;;;;4.55;1.55;;;23.90;41.80;;;;;;5021832;28;20508;-51
2022/11/04 13:45:51;;;;;;;3.88;1.52;;;23.90;41.80;;;;;;5055511;28;20062;-57